Thursday, August 24, 2017, 1:02 AM EDT

KLNS, Lancaster Airport

Location: Lititz, PA, United States Lat: 40.117
Local Time: 1:02 AM EDT ( 5:02 GMT) Lon: -76.3
Time Zone: US/Eastern Elev: 403 ft

Show me the last for .
Show Decoded

2017-08-24 00:53 METAR KLNS 240453Z AUTO 00000KT 10SM CLR 16/16 A2992 RMK AO2 SLP130 T01610156
                 402720161 =
2017-08-23 23:53 METAR KLNS 240353Z AUTO 28004KT 10SM CLR 18/16 A2992 RMK AO2 SLP128 T01830161 =
2017-08-23 22:53 METAR KLNS 240253Z 29003KT 10SM CLR 19/16 A2990 RMK AO2 SLP124 T01940161 50005 =
2017-08-23 21:53 METAR KLNS 240153Z 00000KT 10SM CLR 19/16 A2991 RMK AO2 SLP124 T01940156 =
2017-08-23 20:53 METAR KLNS 240053Z 28003KT 10SM CLR 21/16 A2990 RMK AO2 SLP123 T02060161 =
2017-08-23 19:53 METAR KLNS 232353Z 33004KT 10SM CLR 23/14 A2989 RMK AO2 SLP117 T02330139 10272
                 20233 53005 =
2017-08-23 18:53 METAR KLNS 232253Z 34008KT 10SM CLR 25/14 A2987 RMK AO2 SLP111 T02500139 =
2017-08-23 17:53 METAR KLNS 232153Z 33009KT 10SM CLR 26/14 A2987 RMK AO2 SLP111 T02610139 =
2017-08-23 16:53 METAR KLNS 232053Z 33007KT 10SM FEW060 27/14 A2987 RMK AO2 SLP112 T02670139
                 56010 =
2017-08-23 15:53 METAR KLNS 231953Z 31010KT 10SM FEW060 27/14 A2988 RMK AO2 SLP114 T02670139 =
2017-08-23 14:53 METAR KLNS 231853Z 27011G16KT 10SM SCT055 27/14 A2989 RMK AO2 SLP118 T02670144 =
2017-08-23 13:53 METAR KLNS 231753Z 32009KT 10SM FEW055 25/14 A2990 RMK AO2 SLP122 T02500139
                 10267 20228 58001 =
2017-08-23 12:53 METAR KLNS 231653Z 35006KT 10SM CLR 26/13 A2990 RMK AO2 SLP123 T02610133 =
2017-08-23 11:53 METAR KLNS 231553Z 29005KT 10SM CLR 25/14 A2991 RMK AO2 SLP124 T02500144 =
2017-08-23 10:53 METAR KLNS 231453Z 35007KT 10SM CLR 25/14 A2991 RMK AO2 SLP123 T02500139 53016 =
2017-08-23 09:53 METAR KLNS 231353Z 36010G15KT 10SM CLR 24/17 A2988 RMK AO2 SLP116 T02440172 =
2017-08-23 08:53 METAR KLNS 231253Z 01007KT 10SM FEW020 23/19 A2988 RMK AO2 SLP114 T02330194 =
2017-08-23 07:53 METAR KLNS 231153Z 30007KT 10SM CLR 23/20 A2986 RMK AO2 SLP108 60001 70030
                 T02280200 10233 20222 53018 =
2017-08-23 06:53 METAR KLNS 231053Z 30005KT 10SM FEW100 22/21 A2984 RMK AO2 RAE0956 SLP099 P0000
                 T02220211 =
2017-08-23 05:53 METAR KLNS 230953Z 28006KT 7SM -RA OVC095 23/22 A2982 RMK AO2 RAB47 SLP094 P0000
                 T02280222 =
2017-08-23 04:53 METAR KLNS 230853Z AUTO 27006KT 10SM BKN070 OVC085 23/22 A2981 RMK AO2 SLP089
                 60001 T02280222 55001 =
2017-08-23 03:53 METAR KLNS 230753Z AUTO 28003KT 9SM OVC095 23/23 A2979 RMK AO2 SLP085 P0001
                 T02280228 =
2017-08-23 02:53 METAR KLNS 230653Z AUTO 19003KT 10SM CLR 23/23 A2980 RMK AO2 RAE19 SLP086 P0000
                 T02330228 =
2017-08-23 01:53 METAR KLNS 230553Z AUTO 27005KT 10SM -RA CLR 23/23 A2981 RMK AO2 RAE00B21 SLP090
                 P0000 60029 T02330228 10294 20233 50002 =

Support USWX by starting your Amazon purchase here.